sensor_id;sensor_type;location;lat;lon;timestamp;temperature;humidity
43665;DHT22;29263;48.172;11.484;2023-05-07T00:02:21;12.20;99.90
43665;DHT22;29263;48.172;11.484;2023-05-07T00:04:46;12.10;99.90
43665;DHT22;29263;48.172;11.484;2023-05-07T00:07:12;12.10;99.90
43665;DHT22;29263;48.172;11.484;2023-05-07T00:09:38;12.10;99.90
43665;DHT22;29263;48.172;11.484;2023-05-07T00:12:03;12.00;99.90
43665;DHT22;29263;48.172;11.484;2023-05-07T00:14:29;12.00;99.90
43665;DHT22;29263;48.172;11.484;2023-05-07T00:16:55;11.90;99.90
43665;DHT22;29263;48.172;11.484;2023-05-07T00:19:20;11.90;99.90
43665;DHT22;29263;48.172;11.484;2023-05-07T00:21:46;11.90;99.90
43665;DHT22;29263;48.172;11.484;2023-05-07T00:24:12;11.90;99.90
43665;DHT22;29263;48.172;11.484;2023-05-07T00:26:37;11.90;99.90
43665;DHT22;29263;48.172;11.484;2023-05-07T00:29:03;11.90;99.90
43665;DHT22;29263;48.172;11.484;2023-05-07T00:31:29;11.90;99.90
43665;DHT22;29263;48.172;11.484;2023-05-07T00:33:54;11.80;99.90
43665;DHT22;29263;48.172;11.484;2023-05-07T00:36:20;11.90;99.90
43665;DHT22;29263;48.172;11.484;2023-05-07T00:38:45;11.90;99.90
43665;DHT22;29263;48.172;11.484;2023-05-07T00:41:15;11.90;99.90
43665;DHT22;29263;48.172;11.484;2023-05-07T00:43:40;11.80;99.90
43665;DHT22;29263;48.172;11.484;2023-05-07T00:46:06;11.80;99.90
43665;DHT22;29263;48.172;11.484;2023-05-07T00:48:32;11.80;99.90
43665;DHT22;29263;48.172;11.484;2023-05-07T00:50:57;11.80;99.90
43665;DHT22;29263;48.172;11.484;2023-05-07T00:53:23;11.70;99.90
43665;DHT22;29263;48.172;11.484;2023-05-07T00:55:49;11.70;99.90
43665;DHT22;29263;48.172;11.484;2023-05-07T00:58:15;11.70;99.90
43665;DHT22;29263;48.172;11.484;2023-05-07T01:00:41;11.70;99.90
43665;DHT22;29263;48.172;11.484;2023-05-07T01:03:06;11.70;99.90
43665;DHT22;29263;48.172;11.484;2023-05-07T01:05:32;11.70;99.90
43665;DHT22;29263;48.172;11.484;2023-05-07T01:08:01;11.70;99.90
43665;DHT22;29263;48.172;11.484;2023-05-07T01:10:28;11.70;99.90
43665;DHT22;29263;48.172;11.484;2023-05-07T01:12:55;11.70;99.90
43665;DHT22;29263;48.172;11.484;2023-05-07T01:15:22;11.70;99.90
43665;DHT22;29263;48.172;11.484;2023-05-07T01:17:47;11.60;99.90
43665;DHT22;29263;48.172;11.484;2023-05-07T01:20:13;11.50;99.90
43665;DHT22;29263;48.172;11.484;2023-05-07T01:22:39;11.60;99.90
43665;DHT22;29263;48.172;11.484;2023-05-07T01:25:06;11.60;99.90
43665;DHT22;29263;48.172;11.484;2023-05-07T01:27:32;11.60;99.90
43665;DHT22;29263;48.172;11.484;2023-05-07T01:30:05;11.60;99.90
43665;DHT22;29263;48.172;11.484;2023-05-07T01:35:18;11.60;99.90
43665;DHT22;29263;48.172;11.484;2023-05-07T01:37:44;11.60;99.90
43665;DHT22;29263;48.172;11.484;2023-05-07T01:40:11;11.60;99.90
43665;DHT22;29263;48.172;11.484;2023-05-07T01:42:37;11.60;99.90
43665;DHT22;29263;48.172;11.484;2023-05-07T01:45:02;11.60;99.90
43665;DHT22;29263;48.172;11.484;2023-05-07T01:47:29;11.60;99.90
43665;DHT22;29263;48.172;11.484;2023-05-07T01:49:55;11.50;99.90
43665;DHT22;29263;48.172;11.484;2023-05-07T01:52:21;11.50;99.90
43665;DHT22;29263;48.172;11.484;2023-05-07T01:54:46;11.50;99.90
43665;DHT22;29263;48.172;11.484;2023-05-07T01:57:12;11.40;99.90
43665;DHT22;29263;48.172;11.484;2023-05-07T01:59:38;11.40;99.90
43665;DHT22;29263;48.172;11.484;2023-05-07T02:02:03;11.40;99.90
43665;DHT22;29263;48.172;11.484;2023-05-07T02:04:29;11.40;99.90
43665;DHT22;29263;48.172;11.484;2023-05-07T02:06:55;11.40;99.90
43665;DHT22;29263;48.172;11.484;2023-05-07T02:09:21;11.40;99.90
43665;DHT22;29263;48.172;11.484;2023-05-07T02:11:47;11.40;99.90
43665;DHT22;29263;48.172;11.484;2023-05-07T02:14:13;11.40;99.90
43665;DHT22;29263;48.172;11.484;2023-05-07T02:16:39;11.30;99.90
43665;DHT22;29263;48.172;11.484;2023-05-07T02:19:04;11.30;99.90
43665;DHT22;29263;48.172;11.484;2023-05-07T02:21:30;11.30;99.90
43665;DHT22;29263;48.172;11.484;2023-05-07T02:23:56;11.30;99.90
43665;DHT22;29263;48.172;11.484;2023-05-07T02:26:21;11.30;99.90
43665;DHT22;29263;48.172;11.484;2023-05-07T02:28:47;11.20;99.90
43665;DHT22;29263;48.172;11.484;2023-05-07T02:31:13;11.20;99.90
43665;DHT22;29263;48.172;11.484;2023-05-07T02:33:38;11.20;99.90
43665;DHT22;29263;48.172;11.484;2023-05-07T02:36:11;11.20;99.90
43665;DHT22;29263;48.172;11.484;2023-05-07T02:38:37;11.20;99.90
43665;DHT22;29263;48.172;11.484;2023-05-07T02:41:02;11.20;99.90
43665;DHT22;29263;48.172;11.484;2023-05-07T02:43:28;11.20;99.90
43665;DHT22;29263;48.172;11.484;2023-05-07T02:46:07;11.20;99.90
43665;DHT22;29263;48.172;11.484;2023-05-07T02:48:33;11.20;99.90
43665;DHT22;29263;48.172;11.484;2023-05-07T02:50:59;11.20;99.90
43665;DHT22;29263;48.172;11.484;2023-05-07T02:53:25;11.20;99.90
43665;DHT22;29263;48.172;11.484;2023-05-07T02:55:56;11.20;99.90
43665;DHT22;29263;48.172;11.484;2023-05-07T02:58:21;11.20;99.90
43665;DHT22;29263;48.172;11.484;2023-05-07T03:00:47;11.20;99.90
43665;DHT22;29263;48.172;11.484;2023-05-07T03:03:13;11.10;99.90
43665;DHT22;29263;48.172;11.484;2023-05-07T03:05:39;11.10;99.90
43665;DHT22;29263;48.172;11.484;2023-05-07T03:08:05;11.00;99.90
43665;DHT22;29263;48.172;11.484;2023-05-07T03:10:31;11.00;99.90
43665;DHT22;29263;48.172;11.484;2023-05-07T03:12:56;11.00;99.90
43665;DHT22;29263;48.172;11.484;2023-05-07T03:15:22;11.00;99.90
43665;DHT22;29263;48.172;11.484;2023-05-07T03:17:48;11.00;99.90
43665;DHT22;29263;48.172;11.484;2023-05-07T03:20:14;11.00;99.90
43665;DHT22;29263;48.172;11.484;2023-05-07T03:22:40;10.90;99.90
43665;DHT22;29263;48.172;11.484;2023-05-07T03:25:06;10.90;99.90
43665;DHT22;29263;48.172;11.484;2023-05-07T03:27:32;11.00;99.90
43665;DHT22;29263;48.172;11.484;2023-05-07T03:29:59;11.00;99.90
43665;DHT22;29263;48.172;11.484;2023-05-07T03:32:24;11.00;99.90
43665;DHT22;29263;48.172;11.484;2023-05-07T03:34:50;11.00;99.90
43665;DHT22;29263;48.172;11.484;2023-05-07T03:37:16;10.90;99.90
43665;DHT22;29263;48.172;11.484;2023-05-07T03:39:42;10.90;99.90
43665;DHT22;29263;48.172;11.484;2023-05-07T03:42:07;11.00;99.90
43665;DHT22;29263;48.172;11.484;2023-05-07T03:44:33;10.90;99.90
43665;DHT22;29263;48.172;11.484;2023-05-07T03:47:02;10.90;99.90
43665;DHT22;29263;48.172;11.484;2023-05-07T03:49:31;10.90;99.90
43665;DHT22;29263;48.172;11.484;2023-05-07T03:51:57;10.80;99.90
43665;DHT22;29263;48.172;11.484;2023-05-07T03:54:22;10.80;99.90
43665;DHT22;29263;48.172;11.484;2023-05-07T03:56:48;10.80;99.90
43665;DHT22;29263;48.172;11.484;2023-05-07T03:59:13;10.80;99.90
43665;DHT22;29263;48.172;11.484;2023-05-07T04:01:45;10.80;99.90
43665;DHT22;29263;48.172;11.484;2023-05-07T04:04:10;10.70;99.90
43665;DHT22;29263;48.172;11.484;2023-05-07T04:06:39;10.70;99.90
43665;DHT22;29263;48.172;11.484;2023-05-07T04:09:07;10.70;99.90
43665;DHT22;29263;48.172;11.484;2023-05-07T04:11:33;10.70;99.90
43665;DHT22;29263;48.172;11.484;2023-05-07T04:13:59;10.70;99.90
43665;DHT22;29263;48.172;11.484;2023-05-07T04:16:24;10.70;99.90
43665;DHT22;29263;48.172;11.484;2023-05-07T04:18:50;10.60;99.90
43665;DHT22;29263;48.172;11.484;2023-05-07T04:21:20;10.60;99.90
43665;DHT22;29263;48.172;11.484;2023-05-07T04:23:49;10.70;99.90
43665;DHT22;29263;48.172;11.484;2023-05-07T04:26:15;10.70;99.90
43665;DHT22;29263;48.172;11.484;2023-05-07T04:28:42;10.80;99.90
43665;DHT22;29263;48.172;11.484;2023-05-07T04:31:08;10.80;99.90
43665;DHT22;29263;48.172;11.484;2023-05-07T04:33:33;10.80;99.90
43665;DHT22;29263;48.172;11.484;2023-05-07T04:36:02;10.80;99.90
43665;DHT22;29263;48.172;11.484;2023-05-07T04:38:29;10.80;99.90
43665;DHT22;29263;48.172;11.484;2023-05-07T04:40:56;10.90;99.90
43665;DHT22;29263;48.172;11.484;2023-05-07T04:43:22;10.90;99.90
43665;DHT22;29263;48.172;11.484;2023-05-07T04:45:50;10.90;99.90
43665;DHT22;29263;48.172;11.484;2023-05-07T04:48:16;11.00;99.90
43665;DHT22;29263;48.172;11.484;2023-05-07T04:50:46;10.90;99.90
43665;DHT22;29263;48.172;11.484;2023-05-07T04:53:12;11.00;99.90
43665;DHT22;29263;48.172;11.484;2023-05-07T04:55:38;11.10;99.90
43665;DHT22;29263;48.172;11.484;2023-05-07T04:58:03;11.10;99.90
43665;DHT22;29263;48.172;11.484;2023-05-07T05:00:30;11.10;99.90
43665;DHT22;29263;48.172;11.484;2023-05-07T05:02:56;11.20;99.90
43665;DHT22;29263;48.172;11.484;2023-05-07T05:05:21;11.20;99.90
43665;DHT22;29263;48.172;11.484;2023-05-07T05:07:47;11.30;99.90
43665;DHT22;29263;48.172;11.484;2023-05-07T05:10:13;11.40;99.90
43665;DHT22;29263;48.172;11.484;2023-05-07T05:12:38;11.40;99.90
43665;DHT22;29263;48.172;11.484;2023-05-07T05:15:05;11.50;99.90
43665;DHT22;29263;48.172;11.484;2023-05-07T05:17:30;11.60;99.90
43665;DHT22;29263;48.172;11.484;2023-05-07T05:19:56;11.60;99.90
43665;DHT22;29263;48.172;11.484;2023-05-07T05:22:22;11.70;99.90
43665;DHT22;29263;48.172;11.484;2023-05-07T05:24:47;11.80;99.90
43665;DHT22;29263;48.172;11.484;2023-05-07T05:27:13;11.80;99.90
43665;DHT22;29263;48.172;11.484;2023-05-07T05:29:38;12.00;99.90
43665;DHT22;29263;48.172;11.484;2023-05-07T05:32:04;12.00;99.90
43665;DHT22;29263;48.172;11.484;2023-05-07T05:34:29;12.20;99.90
43665;DHT22;29263;48.172;11.484;2023-05-07T05:36:55;12.30;99.90
43665;DHT22;29263;48.172;11.484;2023-05-07T05:39:21;12.40;99.90
43665;DHT22;29263;48.172;11.484;2023-05-07T05:41:48;12.50;99.90
43665;DHT22;29263;48.172;11.484;2023-05-07T05:44:14;12.70;99.90
43665;DHT22;29263;48.172;11.484;2023-05-07T05:46:39;12.80;99.90
43665;DHT22;29263;48.172;11.484;2023-05-07T05:49:05;13.00;99.90
43665;DHT22;29263;48.172;11.484;2023-05-07T05:51:31;13.20;99.90
43665;DHT22;29263;48.172;11.484;2023-05-07T05:53:56;13.30;99.90
43665;DHT22;29263;48.172;11.484;2023-05-07T05:56:22;13.50;99.90
43665;DHT22;29263;48.172;11.484;2023-05-07T05:58:48;13.60;99.90
43665;DHT22;29263;48.172;11.484;2023-05-07T06:01:17;13.80;99.90
43665;DHT22;29263;48.172;11.484;2023-05-07T06:03:51;14.00;99.90
43665;DHT22;29263;48.172;11.484;2023-05-07T06:06:26;14.10;99.90
43665;DHT22;29263;48.172;11.484;2023-05-07T06:08:52;14.30;99.90
43665;DHT22;29263;48.172;11.484;2023-05-07T06:11:26;14.50;99.90
43665;DHT22;29263;48.172;11.484;2023-05-07T06:13:52;14.70;99.90
43665;DHT22;29263;48.172;11.484;2023-05-07T06:16:20;14.90;99.90
43665;DHT22;29263;48.172;11.484;2023-05-07T06:18:49;15.00;99.90
43665;DHT22;29263;48.172;11.484;2023-05-07T06:21:21;15.20;99.90
43665;DHT22;29263;48.172;11.484;2023-05-07T06:23:46;15.40;99.90
43665;DHT22;29263;48.172;11.484;2023-05-07T06:26:12;15.50;99.90
43665;DHT22;29263;48.172;11.484;2023-05-07T06:28:37;15.60;99.90
43665;DHT22;29263;48.172;11.484;2023-05-07T06:31:16;15.70;99.90
43665;DHT22;29263;48.172;11.484;2023-05-07T06:33:43;15.90;99.90
43665;DHT22;29263;48.172;11.484;2023-05-07T06:36:09;16.10;99.90
43665;DHT22;29263;48.172;11.484;2023-05-07T06:38:35;16.20;99.90
43665;DHT22;29263;48.172;11.484;2023-05-07T06:41:00;16.40;99.90
43665;DHT22;29263;48.172;11.484;2023-05-07T06:43:26;16.50;99.90
43665;DHT22;29263;48.172;11.484;2023-05-07T06:45:52;16.70;99.90
43665;DHT22;29263;48.172;11.484;2023-05-07T06:48:17;16.90;99.90
43665;DHT22;29263;48.172;11.484;2023-05-07T06:50:43;17.00;99.90
43665;DHT22;29263;48.172;11.484;2023-05-07T06:53:08;17.20;99.90
43665;DHT22;29263;48.172;11.484;2023-05-07T06:55:34;17.40;99.90
43665;DHT22;29263;48.172;11.484;2023-05-07T06:58:00;17.40;99.90
43665;DHT22;29263;48.172;11.484;2023-05-07T07:00:27;17.60;99.90
43665;DHT22;29263;48.172;11.484;2023-05-07T07:02:54;17.60;99.90
43665;DHT22;29263;48.172;11.484;2023-05-07T07:05:20;17.70;99.90
43665;DHT22;29263;48.172;11.484;2023-05-07T07:07:45;17.90;99.90
43665;DHT22;29263;48.172;11.484;2023-05-07T07:10:21;17.90;99.90
43665;DHT22;29263;48.172;11.484;2023-05-07T07:12:46;18.00;99.90
43665;DHT22;29263;48.172;11.484;2023-05-07T07:15:13;18.20;99.90
43665;DHT22;29263;48.172;11.484;2023-05-07T07:17:39;18.30;99.90
43665;DHT22;29263;48.172;11.484;2023-05-07T07:20:05;18.40;99.90
43665;DHT22;29263;48.172;11.484;2023-05-07T07:22:31;18.50;99.90
43665;DHT22;29263;48.172;11.484;2023-05-07T07:24:56;18.50;99.90
43665;DHT22;29263;48.172;11.484;2023-05-07T07:27:22;18.60;99.90
43665;DHT22;29263;48.172;11.484;2023-05-07T07:29:48;18.80;99.90
43665;DHT22;29263;48.172;11.484;2023-05-07T07:32:13;18.90;99.90
43665;DHT22;29263;48.172;11.484;2023-05-07T07:34:42;19.00;99.90
43665;DHT22;29263;48.172;11.484;2023-05-07T07:37:08;19.10;99.90
43665;DHT22;29263;48.172;11.484;2023-05-07T07:39:34;19.30;99.90
43665;DHT22;29263;48.172;11.484;2023-05-07T07:42:00;19.40;99.90
43665;DHT22;29263;48.172;11.484;2023-05-07T07:44:27;19.50;99.90
43665;DHT22;29263;48.172;11.484;2023-05-07T07:46:53;19.60;98.00
43665;DHT22;29263;48.172;11.484;2023-05-07T07:49:18;19.50;94.80
43665;DHT22;29263;48.172;11.484;2023-05-07T07:51:44;19.50;99.80
43665;DHT22;29263;48.172;11.484;2023-05-07T07:54:10;19.70;94.00
43665;DHT22;29263;48.172;11.484;2023-05-07T07:56:35;19.80;92.70
43665;DHT22;29263;48.172;11.484;2023-05-07T07:59:01;19.80;98.00
43665;DHT22;29263;48.172;11.484;2023-05-07T08:01:29;19.90;90.30
43665;DHT22;29263;48.172;11.484;2023-05-07T08:03:54;20.00;87.50
43665;DHT22;29263;48.172;11.484;2023-05-07T08:06:20;20.10;83.80
43665;DHT22;29263;48.172;11.484;2023-05-07T08:08:46;20.20;92.20
43665;DHT22;29263;48.172;11.484;2023-05-07T08:11:11;20.30;96.20
43665;DHT22;29263;48.172;11.484;2023-05-07T08:13:38;20.50;89.70
43665;DHT22;29263;48.172;11.484;2023-05-07T08:16:04;20.60;81.00
43665;DHT22;29263;48.172;11.484;2023-05-07T08:18:30;20.50;84.40
43665;DHT22;29263;48.172;11.484;2023-05-07T08:20:55;20.60;89.10
43665;DHT22;29263;48.172;11.484;2023-05-07T08:23:21;20.70;83.90
43665;DHT22;29263;48.172;11.484;2023-05-07T08:25:48;20.80;81.90
43665;DHT22;29263;48.172;11.484;2023-05-07T08:28:14;20.80;74.50
43665;DHT22;29263;48.172;11.484;2023-05-07T08:30:40;20.80;78.90
43665;DHT22;29263;48.172;11.484;2023-05-07T08:33:06;20.90;74.00
43665;DHT22;29263;48.172;11.484;2023-05-07T08:35:33;21.00;71.30
43665;DHT22;29263;48.172;11.484;2023-05-07T08:37:59;21.00;76.00
43665;DHT22;29263;48.172;11.484;2023-05-07T08:40:25;21.10;74.90
43665;DHT22;29263;48.172;11.484;2023-05-07T08:42:52;21.10;78.40
43665;DHT22;29263;48.172;11.484;2023-05-07T08:45:19;21.10;70.50
43665;DHT22;29263;48.172;11.484;2023-05-07T08:48:01;21.20;72.40
43665;DHT22;29263;48.172;11.484;2023-05-07T08:50:27;21.20;68.00
43665;DHT22;29263;48.172;11.484;2023-05-07T08:52:53;21.00;69.60
43665;DHT22;29263;48.172;11.484;2023-05-07T08:55:19;20.90;72.70
43665;DHT22;29263;48.172;11.484;2023-05-07T08:57:45;21.00;71.00
43665;DHT22;29263;48.172;11.484;2023-05-07T09:00:11;21.10;74.20
43665;DHT22;29263;48.172;11.484;2023-05-07T09:02:37;21.30;72.30
43665;DHT22;29263;48.172;11.484;2023-05-07T09:05:04;21.20;71.90
43665;DHT22;29263;48.172;11.484;2023-05-07T09:07:30;21.40;72.50
43665;DHT22;29263;48.172;11.484;2023-05-07T09:09:56;21.50;69.80
43665;DHT22;29263;48.172;11.484;2023-05-07T09:12:22;21.50;67.60
43665;DHT22;29263;48.172;11.484;2023-05-07T09:14:48;21.50;69.50
43665;DHT22;29263;48.172;11.484;2023-05-07T09:17:15;21.70;71.10
43665;DHT22;29263;48.172;11.484;2023-05-07T09:19:46;21.80;63.90
43665;DHT22;29263;48.172;11.484;2023-05-07T09:22:12;21.70;63.60
43665;DHT22;29263;48.172;11.484;2023-05-07T09:24:38;21.80;66.90
43665;DHT22;29263;48.172;11.484;2023-05-07T09:27:04;21.80;64.70
43665;DHT22;29263;48.172;11.484;2023-05-07T09:29:31;21.90;64.80
43665;DHT22;29263;48.172;11.484;2023-05-07T09:32:07;21.90;64.70
43665;DHT22;29263;48.172;11.484;2023-05-07T09:34:36;21.90;65.30
43665;DHT22;29263;48.172;11.484;2023-05-07T09:37:05;21.90;63.30
43665;DHT22;29263;48.172;11.484;2023-05-07T09:39:46;21.80;61.30
43665;DHT22;29263;48.172;11.484;2023-05-07T09:42:12;21.80;62.20
43665;DHT22;29263;48.172;11.484;2023-05-07T09:44:40;22.00;61.60
43665;DHT22;29263;48.172;11.484;2023-05-07T09:47:07;21.90;59.20
43665;DHT22;29263;48.172;11.484;2023-05-07T09:49:38;21.90;60.00
43665;DHT22;29263;48.172;11.484;2023-05-07T09:52:06;21.90;59.10
43665;DHT22;29263;48.172;11.484;2023-05-07T09:54:34;21.80;57.90
43665;DHT22;29263;48.172;11.484;2023-05-07T09:57:04;21.90;56.10
43665;DHT22;29263;48.172;11.484;2023-05-07T09:59:32;22.00;59.60
43665;DHT22;29263;48.172;11.484;2023-05-07T10:01:59;22.00;56.00
43665;DHT22;29263;48.172;11.484;2023-05-07T10:04:27;21.90;54.70
43665;DHT22;29263;48.172;11.484;2023-05-07T10:06:53;21.90;56.30
43665;DHT22;29263;48.172;11.484;2023-05-07T10:09:20;21.80;57.90
43665;DHT22;29263;48.172;11.484;2023-05-07T10:11:50;21.90;58.60
43665;DHT22;29263;48.172;11.484;2023-05-07T10:14:17;21.90;53.90
43665;DHT22;29263;48.172;11.484;2023-05-07T10:16:43;21.90;55.80
43665;DHT22;29263;48.172;11.484;2023-05-07T10:19:10;22.10;56.80
43665;DHT22;29263;48.172;11.484;2023-05-07T10:21:41;22.20;58.30
43665;DHT22;29263;48.172;11.484;2023-05-07T10:24:27;22.30;58.60
43665;DHT22;29263;48.172;11.484;2023-05-07T10:26:55;22.40;58.70
43665;DHT22;29263;48.172;11.484;2023-05-07T10:29:42;22.60;58.10
43665;DHT22;29263;48.172;11.484;2023-05-07T10:32:26;22.70;57.00
43665;DHT22;29263;48.172;11.484;2023-05-07T10:34:55;22.80;56.10
43665;DHT22;29263;48.172;11.484;2023-05-07T10:37:22;22.80;57.40
43665;DHT22;29263;48.172;11.484;2023-05-07T10:39:48;22.90;56.50
43665;DHT22;29263;48.172;11.484;2023-05-07T10:42:14;23.10;53.80
43665;DHT22;29263;48.172;11.484;2023-05-07T10:44:40;23.10;56.50
43665;DHT22;29263;48.172;11.484;2023-05-07T10:47:11;23.20;57.70
43665;DHT22;29263;48.172;11.484;2023-05-07T10:54:45;23.30;53.10
43665;DHT22;29263;48.172;11.484;2023-05-07T10:59:54;23.00;56.60
43665;DHT22;29263;48.172;11.484;2023-05-07T11:02:20;23.20;55.80
43665;DHT22;29263;48.172;11.484;2023-05-07T11:05:21;23.30;52.50
43665;DHT22;29263;48.172;11.484;2023-05-07T11:08:07;23.20;51.00
43665;DHT22;29263;48.172;11.484;2023-05-07T11:10:53;23.20;53.40
43665;DHT22;29263;48.172;11.484;2023-05-07T11:13:43;23.20;53.00
43665;DHT22;29263;48.172;11.484;2023-05-07T11:16:25;23.20;54.30
43665;DHT22;29263;48.172;11.484;2023-05-07T11:18:54;23.20;51.60
43665;DHT22;29263;48.172;11.484;2023-05-07T11:23:59;23.50;50.00
43665;DHT22;29263;48.172;11.484;2023-05-07T11:26:27;23.60;48.90
43665;DHT22;29263;48.172;11.484;2023-05-07T11:28:53;23.80;51.10
43665;DHT22;29263;48.172;11.484;2023-05-07T11:31:24;24.00;51.00
43665;DHT22;29263;48.172;11.484;2023-05-07T11:33:52;24.10;52.90
43665;DHT22;29263;48.172;11.484;2023-05-07T11:36:18;23.80;53.30
43665;DHT22;29263;48.172;11.484;2023-05-07T11:38:44;23.70;54.40
43665;DHT22;29263;48.172;11.484;2023-05-07T11:41:10;23.50;53.30
43665;DHT22;29263;48.172;11.484;2023-05-07T11:43:36;23.60;56.40
43665;DHT22;29263;48.172;11.484;2023-05-07T11:46:09;23.70;55.40
43665;DHT22;29263;48.172;11.484;2023-05-07T11:48:39;23.80;55.30
43665;DHT22;29263;48.172;11.484;2023-05-07T11:51:07;24.00;54.00
43665;DHT22;29263;48.172;11.484;2023-05-07T11:53:41;24.00;53.70
43665;DHT22;29263;48.172;11.484;2023-05-07T11:56:15;24.00;54.40
43665;DHT22;29263;48.172;11.484;2023-05-07T11:58:41;24.00;52.90
43665;DHT22;29263;48.172;11.484;2023-05-07T12:01:09;24.10;51.70
43665;DHT22;29263;48.172;11.484;2023-05-07T12:03:35;23.90;52.50
43665;DHT22;29263;48.172;11.484;2023-05-07T12:06:02;23.80;53.10
43665;DHT22;29263;48.172;11.484;2023-05-07T12:08:30;23.70;52.30
43665;DHT22;29263;48.172;11.484;2023-05-07T12:10:56;23.70;51.80
43665;DHT22;29263;48.172;11.484;2023-05-07T12:13:24;23.80;52.90
43665;DHT22;29263;48.172;11.484;2023-05-07T12:15:54;23.90;52.50
43665;DHT22;29263;48.172;11.484;2023-05-07T12:18:21;23.90;53.90
43665;DHT22;29263;48.172;11.484;2023-05-07T12:20:47;24.10;50.90
43665;DHT22;29263;48.172;11.484;2023-05-07T12:23:14;24.00;50.80
43665;DHT22;29263;48.172;11.484;2023-05-07T12:25:41;24.20;52.10
43665;DHT22;29263;48.172;11.484;2023-05-07T12:28:17;24.60;49.60
43665;DHT22;29263;48.172;11.484;2023-05-07T12:30:44;24.70;49.80
43665;DHT22;29263;48.172;11.484;2023-05-07T12:33:10;24.60;50.20
43665;DHT22;29263;48.172;11.484;2023-05-07T12:35:42;24.60;50.00
43665;DHT22;29263;48.172;11.484;2023-05-07T12:38:13;24.50;49.80
43665;DHT22;29263;48.172;11.484;2023-05-07T12:40:40;24.70;50.00
43665;DHT22;29263;48.172;11.484;2023-05-07T12:43:07;24.70;50.00
43665;DHT22;29263;48.172;11.484;2023-05-07T12:45:37;24.80;48.50
43665;DHT22;29263;48.172;11.484;2023-05-07T12:48:06;24.80;47.30
43665;DHT22;29263;48.172;11.484;2023-05-07T12:50:32;25.00;47.00
43665;DHT22;29263;48.172;11.484;2023-05-07T12:52:58;24.80;47.60
43665;DHT22;29263;48.172;11.484;2023-05-07T12:55:24;24.50;48.10
43665;DHT22;29263;48.172;11.484;2023-05-07T12:57:51;24.20;48.30
43665;DHT22;29263;48.172;11.484;2023-05-07T13:00:31;24.30;47.90
43665;DHT22;29263;48.172;11.484;2023-05-07T13:02:58;24.40;47.50
43665;DHT22;29263;48.172;11.484;2023-05-07T13:05:24;24.40;46.30
43665;DHT22;29263;48.172;11.484;2023-05-07T13:07:56;24.40;48.40
43665;DHT22;29263;48.172;11.484;2023-05-07T13:10:22;24.20;47.80
43665;DHT22;29263;48.172;11.484;2023-05-07T13:12:49;24.00;47.60
43665;DHT22;29263;48.172;11.484;2023-05-07T13:15:14;24.00;47.50
43665;DHT22;29263;48.172;11.484;2023-05-07T13:17:40;24.20;50.20
43665;DHT22;29263;48.172;11.484;2023-05-07T13:20:06;24.50;46.60
43665;DHT22;29263;48.172;11.484;2023-05-07T13:22:33;24.60;45.90
43665;DHT22;29263;48.172;11.484;2023-05-07T13:24:59;24.70;47.30
43665;DHT22;29263;48.172;11.484;2023-05-07T13:27:24;24.60;46.20
43665;DHT22;29263;48.172;11.484;2023-05-07T13:29:50;24.70;46.60
43665;DHT22;29263;48.172;11.484;2023-05-07T13:32:16;24.60;46.40
43665;DHT22;29263;48.172;11.484;2023-05-07T13:34:41;24.70;45.20
43665;DHT22;29263;48.172;11.484;2023-05-07T13:37:07;24.70;45.60
43665;DHT22;29263;48.172;11.484;2023-05-07T13:39:33;24.60;47.30
43665;DHT22;29263;48.172;11.484;2023-05-07T13:41:59;24.40;47.10
43665;DHT22;29263;48.172;11.484;2023-05-07T13:44:26;24.20;48.30
43665;DHT22;29263;48.172;11.484;2023-05-07T13:46:51;24.20;50.00
43665;DHT22;29263;48.172;11.484;2023-05-07T13:49:20;24.30;50.40
43665;DHT22;29263;48.172;11.484;2023-05-07T13:51:46;24.50;49.10
43665;DHT22;29263;48.172;11.484;2023-05-07T13:54:11;24.40;48.10
43665;DHT22;29263;48.172;11.484;2023-05-07T13:56:37;24.10;49.10
43665;DHT22;29263;48.172;11.484;2023-05-07T13:59:02;24.00;50.10
43665;DHT22;29263;48.172;11.484;2023-05-07T14:01:28;24.10;49.70
43665;DHT22;29263;48.172;11.484;2023-05-07T14:03:55;24.20;50.30
43665;DHT22;29263;48.172;11.484;2023-05-07T14:06:20;24.20;49.50
43665;DHT22;29263;48.172;11.484;2023-05-07T14:08:47;24.10;49.40
43665;DHT22;29263;48.172;11.484;2023-05-07T14:11:12;24.10;50.70
43665;DHT22;29263;48.172;11.484;2023-05-07T14:13:38;24.20;50.70
43665;DHT22;29263;48.172;11.484;2023-05-07T14:16:04;24.10;50.50
43665;DHT22;29263;48.172;11.484;2023-05-07T14:18:30;24.10;52.00
43665;DHT22;29263;48.172;11.484;2023-05-07T14:20:55;24.10;52.90
43665;DHT22;29263;48.172;11.484;2023-05-07T14:23:21;24.00;53.50
43665;DHT22;29263;48.172;11.484;2023-05-07T14:25:52;23.90;53.90
43665;DHT22;29263;48.172;11.484;2023-05-07T14:28:18;23.70;52.80
43665;DHT22;29263;48.172;11.484;2023-05-07T14:30:44;23.70;53.30
43665;DHT22;29263;48.172;11.484;2023-05-07T14:33:10;23.60;54.90
43665;DHT22;29263;48.172;11.484;2023-05-07T14:35:35;23.70;53.10
43665;DHT22;29263;48.172;11.484;2023-05-07T14:38:01;23.60;54.60
43665;DHT22;29263;48.172;11.484;2023-05-07T14:40:26;23.70;54.90
43665;DHT22;29263;48.172;11.484;2023-05-07T14:42:52;23.70;54.40
43665;DHT22;29263;48.172;11.484;2023-05-07T14:45:18;23.60;52.90
43665;DHT22;29263;48.172;11.484;2023-05-07T14:47:43;23.50;55.30
43665;DHT22;29263;48.172;11.484;2023-05-07T14:50:09;23.50;55.60
43665;DHT22;29263;48.172;11.484;2023-05-07T14:52:34;23.50;54.00
43665;DHT22;29263;48.172;11.484;2023-05-07T14:55:04;23.50;54.60
43665;DHT22;29263;48.172;11.484;2023-05-07T14:57:30;23.30;54.30
43665;DHT22;29263;48.172;11.484;2023-05-07T14:59:58;23.20;53.50
43665;DHT22;29263;48.172;11.484;2023-05-07T15:02:23;23.00;54.10
43665;DHT22;29263;48.172;11.484;2023-05-07T15:04:49;22.80;54.60
43665;DHT22;29263;48.172;11.484;2023-05-07T15:07:15;22.70;54.90
43665;DHT22;29263;48.172;11.484;2023-05-07T15:09:43;22.60;55.80
43665;DHT22;29263;48.172;11.484;2023-05-07T15:12:09;22.50;54.90
43665;DHT22;29263;48.172;11.484;2023-05-07T15:14:35;22.30;55.30
43665;DHT22;29263;48.172;11.484;2023-05-07T15:17:01;22.20;55.50
43665;DHT22;29263;48.172;11.484;2023-05-07T15:19:26;22.00;56.60
43665;DHT22;29263;48.172;11.484;2023-05-07T15:21:57;22.00;55.90
43665;DHT22;29263;48.172;11.484;2023-05-07T15:24:23;22.00;56.60
43665;DHT22;29263;48.172;11.484;2023-05-07T15:26:51;22.00;56.30
43665;DHT22;29263;48.172;11.484;2023-05-07T15:29:17;21.90;56.30